Time;durP1;ratioP1;P1;durP2;ratioP2;P2;SDS_P1;SDS_P2;PMS_P1;PMS_P2;Temp;Humidity;BMP_temperature;BMP_pressure;BME280_temperature;BME280_humidity;BME280_pressure;Samples;Min_cycle;Max_cycle;Signal;HPM_P1;HPM_P2
2022/06/05 00:00:56;;;;;;;4.78;1.52;;;;;;;;;;2093962;28;20032;-65
2022/06/05 00:02:26;;;;;;;1.60;1.50;;;;;;;;;;2096140;28;20439;-65
2022/06/05 00:04:02;;;;;;;1.50;1.40;;;;;;;;;;2094814;28;20033;-67
2022/06/05 00:05:27;;;;;;;1.80;1.70;;;;;;;;;;2097695;28;20108;-66
2022/06/05 00:06:53;;;;;;;1.95;1.55;;;;;;;;;;2094710;28;20017;-65
2022/06/05 00:08:15;;;;;;;2.00;1.90;;;;;;;;;;2092356;28;20056;-66
2022/06/05 00:09:39;;;;;;;2.15;1.58;;;;;;;;;;2096106;28;20059;-66
2022/06/05 00:10:58;;;;;;;1.63;1.58;;;;;;;;;;2096538;28;20025;-65
2022/06/05 00:12:18;;;;;;;1.95;1.83;;;;;;;;;;2096577;28;20024;-65
2022/06/05 00:13:37;;;;;;;2.03;1.92;;;;;;;;;;2095682;28;20112;-65
2022/06/05 00:14:56;;;;;;;1.60;1.40;;;;;;;;;;2097148;28;20412;-65
2022/06/05 00:16:17;;;;;;;1.80;1.70;;;;;;;;;;2095467;28;20119;-63
2022/06/05 00:17:36;;;;;;;3.90;1.63;;;;;;;;;;2097394;28;20112;-65
2022/06/05 00:18:55;;;;;;;1.73;1.63;;;;;;;;;;2097569;28;20063;-65
2022/06/05 00:20:14;;;;;;;1.67;1.58;;;;;;;;;;2095461;28;20426;-65
2022/06/05 00:21:33;;;;;;;1.83;1.55;;;;;;;;;;2093447;28;20078;-65
2022/06/05 00:22:52;;;;;;;1.55;1.45;;;;;;;;;;2094304;28;20036;-64
2022/06/05 00:24:11;;;;;;;1.80;1.70;;;;;;;;;;2096113;28;20056;-65
2022/06/05 00:25:40;;;;;;;1.90;1.80;;;;;;;;;;2097129;28;20056;-65
2022/06/05 00:27:06;;;;;;;1.75;1.65;;;;;;;;;;2096071;28;20028;-65
2022/06/05 00:28:25;;;;;;;2.45;1.50;;;;;;;;;;2096016;28;20024;-65
2022/06/05 00:30:02;;;;;;;1.65;1.55;;;;;;;;;;2097065;28;20033;-65
2022/06/05 00:31:26;;;;;;;1.67;1.58;;;;;;;;;;2096075;28;20032;-65
2022/06/05 00:32:47;;;;;;;1.65;1.55;;;;;;;;;;2096245;28;20036;-65
2022/06/05 00:34:06;;;;;;;2.53;1.60;;;;;;;;;;2094840;28;20037;-65
2022/06/05 00:35:30;;;;;;;2.13;1.65;;;;;;;;;;2098005;28;20037;-65
2022/06/05 00:36:59;;;;;;;2.78;1.50;;;;;;;;;;2096590;28;20036;-66
2022/06/05 00:38:24;;;;;;;1.92;1.73;;;;;;;;;;2093860;28;20044;-66
2022/06/05 00:39:48;;;;;;;1.70;1.60;;;;;;;;;;2096571;28;20502;-66
2022/06/05 00:41:07;;;;;;;1.88;1.30;;;;;;;;;;2096943;28;20045;-66
2022/06/05 00:42:28;;;;;;;1.50;1.40;;;;;;;;;;2097133;28;20140;-67
2022/06/05 00:43:47;;;;;;;1.67;1.58;;;;;;;;;;2093134;28;20028;-66
2022/06/05 00:45:08;;;;;;;1.75;1.65;;;;;;;;;;2094793;28;20040;-66
2022/06/05 00:46:28;;;;;;;1.10;1.10;;;;;;;;;;2092636;28;20020;-66
2022/06/05 00:47:48;;;;;;;1.52;1.42;;;;;;;;;;2095197;28;20025;-66
2022/06/05 00:49:07;;;;;;;3.33;1.45;;;;;;;;;;2095622;28;20040;-66
2022/06/05 00:50:30;;;;;;;1.40;1.30;;;;;;;;;;2095393;28;20092;-66
2022/06/05 00:51:49;;;;;;;1.80;1.48;;;;;;;;;;2094943;28;20052;-66
2022/06/05 00:53:08;;;;;;;1.50;1.40;;;;;;;;;;2094919;28;20020;-66
2022/06/05 00:54:27;;;;;;;1.80;1.70;;;;;;;;;;2096716;28;20040;-66
2022/06/05 00:55:48;;;;;;;2.67;1.73;;;;;;;;;;2097610;28;20510;-66
2022/06/05 00:57:08;;;;;;;1.35;1.25;;;;;;;;;;2095326;28;20449;-66
2022/06/05 00:58:30;;;;;;;1.83;1.73;;;;;;;;;;2095489;28;20060;-66
2022/06/05 00:59:50;;;;;;;2.05;1.42;;;;;;;;;;2094817;28;20376;-66
2022/06/05 01:01:09;;;;;;;1.48;1.38;;;;;;;;;;2096740;28;20029;-66
2022/06/05 01:02:28;;;;;;;6.97;1.98;;;;;;;;;;2095457;28;20033;-66
2022/06/05 01:03:47;;;;;;;2.33;1.67;;;;;;;;;;2094809;28;20435;-65
2022/06/05 01:05:09;;;;;;;1.90;1.80;;;;;;;;;;2096345;28;20025;-66
2022/06/05 01:06:28;;;;;;;3.40;1.70;;;;;;;;;;2094457;28;20021;-66
2022/06/05 01:07:48;;;;;;;1.50;1.40;;;;;;;;;;2096841;28;20028;-66
2022/06/05 01:09:06;;;;;;;6.80;1.70;;;;;;;;;;2093149;28;20104;-66
2022/06/05 01:10:33;;;;;;;8.02;1.65;;;;;;;;;;2095566;28;20460;-66
2022/06/05 01:12:01;;;;;;;2.55;1.80;;;;;;;;;;2096711;28;20029;-66
2022/06/05 01:13:26;;;;;;;2.67;1.95;;;;;;;;;;2095715;28;20032;-66
2022/06/05 01:14:52;;;;;;;1.40;1.30;;;;;;;;;;2095133;28;20111;-66
2022/06/05 01:16:17;;;;;;;1.35;1.35;;;;;;;;;;2094561;28;20025;-66
2022/06/05 01:17:47;;;;;;;2.80;1.50;;;;;;;;;;2097103;28;20442;-67
2022/06/05 01:19:25;;;;;;;1.67;1.40;;;;;;;;;;2095838;28;20119;-66
2022/06/05 01:21:03;;;;;;;3.00;1.55;;;;;;;;;;2096386;28;20041;-66
2022/06/05 01:22:48;;;;;;;3.05;1.75;;;;;;;;;;2095975;28;20108;-66
2022/06/05 01:24:10;;;;;;;2.13;1.30;;;;;;;;;;2093953;28;20053;-65
2022/06/05 01:25:30;;;;;;;1.60;1.50;;;;;;;;;;2096106;28;20108;-65
2022/06/05 01:26:52;;;;;;;1.60;1.30;;;;;;;;;;2096311;28;20474;-66
2022/06/05 01:28:14;;;;;;;2.53;1.10;;;;;;;;;;2096926;28;20028;-66
2022/06/05 01:29:38;;;;;;;1.42;1.40;;;;;;;;;;2094161;28;20021;-66
2022/06/05 01:31:03;;;;;;;2.67;1.70;;;;;;;;;;2094543;28;20040;-66
2022/06/05 01:32:41;;;;;;;1.60;1.50;;;;;;;;;;2095167;28;20025;-66
2022/06/05 01:34:12;;;;;;;1.98;1.60;;;;;;;;;;2091748;28;20038;-66
2022/06/05 01:35:31;;;;;;;1.80;1.70;;;;;;;;;;2094643;28;20040;-68
2022/06/05 01:36:50;;;;;;;4.40;1.50;;;;;;;;;;2095801;28;20032;-66
2022/06/05 01:38:13;;;;;;;2.45;1.67;;;;;;;;;;2095153;28;20032;-66
2022/06/05 01:39:35;;;;;;;1.55;1.48;;;;;;;;;;2094765;28;20482;-65
2022/06/05 01:40:55;;;;;;;2.97;1.40;;;;;;;;;;2095834;28;20048;-65
2022/06/05 01:42:19;;;;;;;1.70;1.60;;;;;;;;;;2094483;28;20119;-66
2022/06/05 01:43:41;;;;;;;1.73;1.60;;;;;;;;;;2094368;28;20876;-66
2022/06/05 01:45:16;;;;;;;1.30;1.20;;;;;;;;;;2093317;28;20028;-66
2022/06/05 01:46:36;;;;;;;2.35;1.40;;;;;;;;;;2096305;28;20580;-66
2022/06/05 01:47:56;;;;;;;1.85;1.75;;;;;;;;;;2096475;28;20047;-66
2022/06/05 01:49:18;;;;;;;1.40;1.30;;;;;;;;;;2095612;28;20478;-66
2022/06/05 01:50:43;;;;;;;3.50;1.52;;;;;;;;;;2094019;28;20029;-66
2022/06/05 01:52:04;;;;;;;1.65;1.33;;;;;;;;;;2090999;28;20037;-66
2022/06/05 01:53:29;;;;;;;1.67;1.58;;;;;;;;;;2093228;28;20625;-66
2022/06/05 01:54:54;;;;;;;1.38;1.25;;;;;;;;;;2093575;28;20041;-66
2022/06/05 01:56:15;;;;;;;3.00;1.67;;;;;;;;;;2095574;28;20028;-66
2022/06/05 01:57:34;;;;;;;1.92;1.80;;;;;;;;;;2096104;28;20107;-66
2022/06/05 01:58:55;;;;;;;3.75;1.70;;;;;;;;;;2097019;28;20032;-66
2022/06/05 02:00:20;;;;;;;5.68;1.50;;;;;;;;;;2091721;28;20033;-66
2022/06/05 02:01:41;;;;;;;5.22;1.67;;;;;;;;;;2087439;28;20099;-66
2022/06/05 02:03:03;;;;;;;3.08;1.52;;;;;;;;;;2092554;28;20032;-66
2022/06/05 02:04:26;;;;;;;1.60;1.50;;;;;;;;;;2096040;28;20494;-66
2022/06/05 02:05:48;;;;;;;2.85;1.60;;;;;;;;;;2095293;28;20032;-67
2022/06/05 02:07:13;;;;;;;1.73;1.63;;;;;;;;;;2095756;28;20025;-65
2022/06/05 02:08:44;;;;;;;2.65;1.67;;;;;;;;;;2094388;28;20032;-65
2022/06/05 02:10:09;;;;;;;1.70;1.60;;;;;;;;;;2090456;28;20475;-66
2022/06/05 02:11:30;;;;;;;2.55;1.60;;;;;;;;;;2090208;28;20036;-66
2022/06/05 02:12:50;;;;;;;1.98;1.60;;;;;;;;;;2092561;28;20483;-66
2022/06/05 02:14:10;;;;;;;1.80;1.70;;;;;;;;;;2093143;28;20466;-66
2022/06/05 02:15:29;;;;;;;1.80;1.70;;;;;;;;;;2092648;28;20032;-66
2022/06/05 02:16:48;;;;;;;1.50;1.40;;;;;;;;;;2094397;28;20025;-66
2022/06/05 02:18:07;;;;;;;1.48;1.38;;;;;;;;;;2097083;28;20036;-66
2022/06/05 02:19:26;;;;;;;1.30;1.30;;;;;;;;;;2097275;28;20032;-66
2022/06/05 02:20:45;;;;;;;3.95;2.05;;;;;;;;;;2095097;28;20044;-66
2022/06/05 02:22:10;;;;;;;1.58;1.48;;;;;;;;;;2096508;28;20036;-65
2022/06/05 02:23:32;;;;;;;4.72;1.70;;;;;;;;;;2094590;28;20208;-66
2022/06/05 02:24:52;;;;;;;2.35;1.45;;;;;;;;;;2094708;28;20025;-66
2022/06/05 02:26:12;;;;;;;2.83;1.90;;;;;;;;;;2095467;28;20028;-65
2022/06/05 02:27:31;;;;;;;6.30;1.77;;;;;;;;;;2094180;28;20033;-66
2022/06/05 02:28:49;;;;;;;8.05;1.90;;;;;;;;;;2094455;28;20099;-66
2022/06/05 02:30:10;;;;;;;7.78;1.67;;;;;;;;;;2093097;28;20037;-66
2022/06/05 02:31:35;;;;;;;3.50;1.70;;;;;;;;;;2096194;28;20028;-66
2022/06/05 02:33:07;;;;;;;3.55;1.80;;;;;;;;;;2095559;28;20099;-66
2022/06/05 02:34:44;;;;;;;4.82;1.70;;;;;;;;;;2096478;28;20036;-66
2022/06/05 02:36:12;;;;;;;4.03;1.65;;;;;;;;;;2095908;28;20111;-66
2022/06/05 02:37:37;;;;;;;1.80;1.70;;;;;;;;;;2094479;28;20859;-66
2022/06/05 02:39:16;;;;;;;6.30;1.90;;;;;;;;;;2094780;28;20029;-66
2022/06/05 02:40:43;;;;;;;4.75;1.80;;;;;;;;;;2095302;28;20024;-65
2022/06/05 02:42:22;;;;;;;1.70;1.55;;;;;;;;;;2096683;28;20032;-66
2022/06/05 02:43:44;;;;;;;2.08;1.80;;;;;;;;;;2094899;28;20111;-66
2022/06/05 02:45:30;;;;;;;3.53;1.85;;;;;;;;;;2094729;28;20033;-64
2022/06/05 02:46:52;;;;;;;1.70;1.60;;;;;;;;;;2092700;28;20021;-66
2022/06/05 02:48:14;;;;;;;2.40;1.60;;;;;;;;;;2088790;28;20024;-66
2022/06/05 02:49:55;;;;;;;1.42;1.33;;;;;;;;;;2093994;28;20024;-66
2022/06/05 02:51:16;;;;;;;3.00;1.63;;;;;;;;;;2096008;28;20032;-66
2022/06/05 02:52:36;;;;;;;1.67;1.60;;;;;;;;;;2095306;28;20025;-66
2022/06/05 02:53:57;;;;;;;1.15;1.13;;;;;;;;;;2092335;28;20041;-66
2022/06/05 02:55:17;;;;;;;1.58;1.48;;;;;;;;;;2095923;28;20025;-66
2022/06/05 02:56:35;;;;;;;1.60;1.50;;;;;;;;;;2092526;28;21023;-66
2022/06/05 02:57:54;;;;;;;4.07;2.13;;;;;;;;;;2096163;28;20486;-66
2022/06/05 02:59:13;;;;;;;3.05;1.77;;;;;;;;;;2093293;28;20514;-66
2022/06/05 03:00:33;;;;;;;2.03;1.80;;;;;;;;;;2091632;28;20028;-67
2022/06/05 03:03:30;;;;;;;2.15;1.70;;;;;;;;;;2095554;28;20044;-66
2022/06/05 03:04:49;;;;;;;1.75;1.63;;;;;;;;;;2095155;28;20021;-66
2022/06/05 03:06:08;;;;;;;1.95;1.85;;;;;;;;;;2094557;28;20032;-66
2022/06/05 03:07:27;;;;;;;1.70;1.60;;;;;;;;;;2095288;28;20100;-66
2022/06/05 03:08:46;;;;;;;3.33;1.63;;;;;;;;;;2093283;28;20021;-66
2022/06/05 03:10:05;;;;;;;3.17;1.70;;;;;;;;;;2096150;28;20025;-66
2022/06/05 03:11:24;;;;;;;3.70;1.60;;;;;;;;;;2095332;28;20056;-66
2022/06/05 03:12:43;;;;;;;1.80;1.70;;;;;;;;;;2096436;28;20017;-66
2022/06/05 03:14:02;;;;;;;2.20;1.80;;;;;;;;;;2095101;28;20032;-67
2022/06/05 03:15:20;;;;;;;1.63;1.52;;;;;;;;;;2093542;28;20043;-66
2022/06/05 03:16:39;;;;;;;2.38;1.65;;;;;;;;;;2095330;28;20504;-64
2022/06/05 03:17:58;;;;;;;3.40;1.60;;;;;;;;;;2096122;28;20028;-66
2022/06/05 03:19:17;;;;;;;2.67;1.63;;;;;;;;;;2096660;28;20017;-66
2022/06/05 03:20:36;;;;;;;3.45;1.90;;;;;;;;;;2096511;28;20041;-66
2022/06/05 03:21:55;;;;;;;2.00;1.40;;;;;;;;;;2094283;28;20033;-66
2022/06/05 03:23:14;;;;;;;1.55;1.45;;;;;;;;;;2097619;28;20060;-66
2022/06/05 03:24:33;;;;;;;8.52;2.15;;;;;;;;;;2095988;28;20036;-66
2022/06/05 03:25:52;;;;;;;16.67;2.60;;;;;;;;;;2095221;28;20020;-66
2022/06/05 03:27:11;;;;;;;12.50;2.67;;;;;;;;;;2095642;28;20025;-66
2022/06/05 03:28:31;;;;;;;9.10;1.98;;;;;;;;;;2097720;28;20032;-66
2022/06/05 03:29:50;;;;;;;18.25;2.78;;;;;;;;;;2098366;28;20095;-66
2022/06/05 03:31:09;;;;;;;7.72;2.33;;;;;;;;;;2095483;28;20028;-66
2022/06/05 03:32:29;;;;;;;5.78;1.70;;;;;;;;;;2096442;28;20033;-66
2022/06/05 03:33:48;;;;;;;6.63;1.90;;;;;;;;;;2096430;28;20029;-66
2022/06/05 03:35:07;;;;;;;6.57;2.10;;;;;;;;;;2094124;28;20076;-64
2022/06/05 03:36:26;;;;;;;11.57;1.70;;;;;;;;;;2094556;28;20028;-66
2022/06/05 03:37:45;;;;;;;6.40;1.92;;;;;;;;;;2096427;28;20028;-66
2022/06/05 03:39:04;;;;;;;5.68;1.67;;;;;;;;;;2095444;28;20045;-66
2022/06/05 03:40:23;;;;;;;7.35;1.83;;;;;;;;;;2095831;28;20036;-66
2022/06/05 03:41:41;;;;;;;6.80;1.83;;;;;;;;;;2095452;28;20407;-66
2022/06/05 03:43:01;;;;;;;3.22;1.42;;;;;;;;;;2094611;28;20084;-65
2022/06/05 03:44:20;;;;;;;4.50;2.00;;;;;;;;;;2097407;28;20036;-66
2022/06/05 03:45:39;;;;;;;2.88;1.52;;;;;;;;;;2095648;28;20096;-66
2022/06/05 03:46:58;;;;;;;2.42;1.60;;;;;;;;;;2094912;28;20037;-66
2022/06/05 03:48:16;;;;;;;2.30;1.58;;;;;;;;;;2097507;28;20033;-66
2022/06/05 03:49:36;;;;;;;2.67;2.05;;;;;;;;;;2097029;28;20482;-66
2022/06/05 03:50:55;;;;;;;1.60;1.50;;;;;;;;;;2097410;28;20044;-66
2022/06/05 03:52:14;;;;;;;2.95;1.70;;;;;;;;;;2096412;28;20037;-66
2022/06/05 03:53:33;;;;;;;1.88;1.60;;;;;;;;;;2097731;28;20025;-66
2022/06/05 03:54:52;;;;;;;2.15;1.33;;;;;;;;;;2092870;28;20075;-66
2022/06/05 03:56:12;;;;;;;1.63;1.52;;;;;;;;;;2095051;28;20060;-65
2022/06/05 03:57:31;;;;;;;1.70;1.60;;;;;;;;;;2096365;28;20040;-64
2022/06/05 03:58:50;;;;;;;2.65;1.77;;;;;;;;;;2097236;28;20024;-65
2022/06/05 04:00:10;;;;;;;1.67;1.58;;;;;;;;;;2095825;28;20024;-66
2022/06/05 04:01:28;;;;;;;1.83;1.73;;;;;;;;;;2094584;28;20498;-66
2022/06/05 04:02:47;;;;;;;1.60;1.50;;;;;;;;;;2096056;28;20037;-66
2022/06/05 04:04:06;;;;;;;4.53;1.90;;;;;;;;;;2096710;28;20032;-65
2022/06/05 04:05:25;;;;;;;1.58;1.40;;;;;;;;;;2096453;28;20024;-66
2022/06/05 04:06:44;;;;;;;2.13;1.48;;;;;;;;;;2095426;28;20510;-66
2022/06/05 04:08:03;;;;;;;2.58;1.45;;;;;;;;;;2096486;28;20036;-66
2022/06/05 04:09:22;;;;;;;1.50;1.40;;;;;;;;;;2095508;28;20024;-66
2022/06/05 04:10:41;;;;;;;1.60;1.50;;;;;;;;;;2098012;28;20036;-66
2022/06/05 04:12:00;;;;;;;4.30;2.20;;;;;;;;;;2094915;28;20029;-66
2022/06/05 04:13:19;;;;;;;2.28;1.70;;;;;;;;;;2097896;28;20029;-66
2022/06/05 04:14:38;;;;;;;2.13;1.45;;;;;;;;;;2095031;28;20056;-65
2022/06/05 04:15:57;;;;;;;1.63;1.52;;;;;;;;;;2094936;28;20453;-68
2022/06/05 04:17:16;;;;;;;2.70;1.75;;;;;;;;;;2092772;28;20514;-66
2022/06/05 04:18:34;;;;;;;1.67;1.58;;;;;;;;;;2096830;28;20029;-66
2022/06/05 04:19:53;;;;;;;2.10;1.90;;;;;;;;;;2092648;28;20044;-66
2022/06/05 04:21:14;;;;;;;1.70;1.60;;;;;;;;;;2096048;28;20032;-66
2022/06/05 04:22:34;;;;;;;3.17;2.00;;;;;;;;;;2093439;28;20024;-66
2022/06/05 04:23:54;;;;;;;6.07;2.00;;;;;;;;;;2095170;28;20029;-66
2022/06/05 04:25:14;;;;;;;3.80;2.00;;;;;;;;;;2094871;28;20032;-66
2022/06/05 04:26:34;;;;;;;3.28;1.75;;;;;;;;;;2097974;28;20056;-66
2022/06/05 04:27:53;;;;;;;5.80;1.67;;;;;;;;;;2097346;28;20032;-66
2022/06/05 04:29:12;;;;;;;3.45;1.60;;;;;;;;;;2097079;28;20029;-66
2022/06/05 04:30:34;;;;;;;3.63;1.67;;;;;;;;;;2093545;28;20037;-66
2022/06/05 04:31:53;;;;;;;3.90;1.73;;;;;;;;;;2095004;28;20119;-65
2022/06/05 04:33:12;;;;;;;1.50;1.40;;;;;;;;;;2097702;28;20028;-65
2022/06/05 04:34:31;;;;;;;4.88;1.70;;;;;;;;;;2096030;28;20052;-66
2022/06/05 04:35:50;;;;;;;2.95;1.60;;;;;;;;;;2096239;28;20020;-66
2022/06/05 04:37:09;;;;;;;1.70;1.45;;;;;;;;;;2093464;28;20032;-66
2022/06/05 04:38:28;;;;;;;1.50;1.40;;;;;;;;;;2095371;28;20367;-66
2022/06/05 04:39:47;;;;;;;2.03;1.50;;;;;;;;;;2097756;28;20052;-66
2022/06/05 04:41:06;;;;;;;2.35;1.50;;;;;;;;;;2096299;28;20657;-67
2022/06/05 04:42:25;;;;;;;1.77;1.67;;;;;;;;;;2095488;28;20020;-67
2022/06/05 04:43:44;;;;;;;3.00;2.00;;;;;;;;;;2093199;28;20033;-67
2022/06/05 04:45:04;;;;;;;1.92;1.77;;;;;;;;;;2095301;28;20028;-65
2022/06/05 04:46:25;;;;;;;1.67;1.58;;;;;;;;;;2096607;28;20490;-67
2022/06/05 04:47:46;;;;;;;1.95;1.80;;;;;;;;;;2096205;28;20041;-67
2022/06/05 04:49:07;;;;;;;1.73;1.63;;;;;;;;;;2095700;28;20389;-66
2022/06/05 04:50:26;;;;;;;1.55;1.38;;;;;;;;;;2095823;28;20414;-67
2022/06/05 04:51:45;;;;;;;1.67;1.60;;;;;;;;;;2097134;28;20036;-67
2022/06/05 04:53:04;;;;;;;2.88;1.63;;;;;;;;;;2092103;28;20040;-66
2022/06/05 04:54:23;;;;;;;1.33;1.23;;;;;;;;;;2096930;28;20033;-66
2022/06/05 04:55:42;;;;;;;1.33;1.23;;;;;;;;;;2095771;28;20115;-66
2022/06/05 04:57:02;;;;;;;3.10;1.70;;;;;;;;;;2094073;28;20045;-66
2022/06/05 04:58:21;;;;;;;1.42;1.33;;;;;;;;;;2095780;28;20037;-66
2022/06/05 04:59:40;;;;;;;4.63;1.40;;;;;;;;;;2092066;28;20476;-66
2022/06/05 05:01:00;;;;;;;2.40;1.40;;;;;;;;;;2094651;28;20032;-66
2022/06/05 05:02:19;;;;;;;3.70;1.10;;;;;;;;;;2096536;28;20040;-66
2022/06/05 05:03:37;;;;;;;1.48;1.38;;;;;;;;;;2094849;28;20111;-66
2022/06/05 05:04:57;;;;;;;3.13;1.70;;;;;;;;;;2097220;28;20036;-68
2022/06/05 05:06:15;;;;;;;1.27;1.27;;;;;;;;;;2096349;28;20119;-65
2022/06/05 05:07:35;;;;;;;2.03;1.48;;;;;;;;;;2095243;28;20076;-65
2022/06/05 05:08:54;;;;;;;1.73;1.63;;;;;;;;;;2094279;28;20445;-65
2022/06/05 05:10:13;;;;;;;1.30;1.20;;;;;;;;;;2096955;28;20479;-65
2022/06/05 05:11:32;;;;;;;1.95;1.40;;;;;;;;;;2095613;28;20211;-65
2022/06/05 05:12:52;;;;;;;1.30;1.20;;;;;;;;;;2094412;28;20041;-65
2022/06/05 05:14:12;;;;;;;2.08;1.20;;;;;;;;;;2096665;28;20107;-65
2022/06/05 05:15:30;;;;;;;1.13;1.13;;;;;;;;;;2093411;28;20025;-66
2022/06/05 05:16:50;;;;;;;1.65;1.20;;;;;;;;;;2096327;28;20033;-65
2022/06/05 05:18:09;;;;;;;2.75;1.35;;;;;;;;;;2093340;28;20407;-65
2022/06/05 05:19:28;;;;;;;1.88;1.20;;;;;;;;;;2097446;28;20402;-66
2022/06/05 05:20:47;;;;;;;1.20;1.10;;;;;;;;;;2097051;28;20032;-67
2022/06/05 05:22:06;;;;;;;2.92;1.30;;;;;;;;;;2097014;28;20029;-66
2022/06/05 05:23:25;;;;;;;1.80;1.20;;;;;;;;;;2092181;28;20052;-66
2022/06/05 05:24:45;;;;;;;1.33;1.15;;;;;;;;;;2098057;28;20032;-66
2022/06/05 05:26:11;;;;;;;2.45;1.20;;;;;;;;;;2092509;28;20047;-66
2022/06/05 05:27:30;;;;;;;1.40;1.30;;;;;;;;;;2096163;28;20024;-66
2022/06/05 05:28:49;;;;;;;1.45;1.35;;;;;;;;;;2094271;28;20033;-66
2022/06/05 05:30:09;;;;;;;2.10;1.60;;;;;;;;;;2089797;28;20025;-66
2022/06/05 05:31:29;;;;;;;1.30;1.20;;;;;;;;;;2095508;28;20025;-65
2022/06/05 05:32:48;;;;;;;1.23;1.13;;;;;;;;;;2095784;28;20029;-66
2022/06/05 05:34:08;;;;;;;1.10;1.00;;;;;;;;;;2093248;28;20025;-67
2022/06/05 05:35:30;;;;;;;1.13;1.10;;;;;;;;;;2092532;28;20028;-67
2022/06/05 05:36:49;;;;;;;1.00;1.00;;;;;;;;;;2093944;28;20490;-68
2022/06/05 05:38:08;;;;;;;1.00;1.00;;;;;;;;;;2094681;28;20044;-67
2022/06/05 05:42:56;;;;;;;4.85;1.30;;;;;;;;;;2095536;28;20079;-64
2022/06/05 05:44:16;;;;;;;1.95;1.20;;;;;;;;;;2096758;28;20036;-65
2022/06/05 05:45:34;;;;;;;0.90;0.90;;;;;;;;;;2095422;28;20025;-65
2022/06/05 05:46:53;;;;;;;1.33;1.20;;;;;;;;;;2094206;28;20032;-65
2022/06/05 05:48:12;;;;;;;0.70;0.70;;;;;;;;;;2094674;28;20036;-65
2022/06/05 05:49:31;;;;;;;1.42;1.33;;;;;;;;;;2096489;28;20112;-66
2022/06/05 05:50:49;;;;;;;1.35;1.33;;;;;;;;;;2096261;28;20045;-66
2022/06/05 05:52:09;;;;;;;2.60;0.90;;;;;;;;;;2094577;28;20024;-66
2022/06/05 05:53:28;;;;;;;1.25;1.15;;;;;;;;;;2093660;28;20405;-67
2022/06/05 05:54:47;;;;;;;2.28;0.85;;;;;;;;;;2095795;28;20032;-65
2022/06/05 05:56:10;;;;;;;2.45;1.10;;;;;;;;;;2094705;28;20435;-66
2022/06/05 05:57:29;;;;;;;0.98;0.90;;;;;;;;;;2095985;28;20033;-66
2022/06/05 05:58:48;;;;;;;1.30;1.20;;;;;;;;;;2093830;28;20037;-66
2022/06/05 06:00:09;;;;;;;1.35;1.00;;;;;;;;;;2094105;28;20021;-66
2022/06/05 06:01:27;;;;;;;1.33;0.82;;;;;;;;;;2095141;28;20037;-68
2022/06/05 06:02:46;;;;;;;1.30;1.20;;;;;;;;;;2092448;28;20029;-66
2022/06/05 06:04:05;;;;;;;1.30;1.20;;;;;;;;;;2094917;28;20045;-66
2022/06/05 06:05:25;;;;;;;1.13;1.02;;;;;;;;;;2097593;28;20549;-66
2022/06/05 06:06:45;;;;;;;1.10;1.10;;;;;;;;;;2095908;28;20025;-66
2022/06/05 06:08:08;;;;;;;1.85;1.08;;;;;;;;;;2095365;28;20024;-65
2022/06/05 06:09:27;;;;;;;1.00;1.00;;;;;;;;;;2095317;28;20460;-64
2022/06/05 06:10:46;;;;;;;1.55;1.20;;;;;;;;;;2096619;28;20024;-66
2022/06/05 06:12:05;;;;;;;1.20;1.10;;;;;;;;;;2094813;28;20028;-66
2022/06/05 06:13:24;;;;;;;1.67;1.25;;;;;;;;;;2095686;28;20032;-66
2022/06/05 06:14:43;;;;;;;1.33;1.25;;;;;;;;;;2086640;28;20037;-66
2022/06/05 06:16:02;;;;;;;1.25;1.15;;;;;;;;;;2093902;28;20021;-66
2022/06/05 06:17:21;;;;;;;3.63;2.25;;;;;;;;;;2092604;28;20041;-67
2022/06/05 06:18:40;;;;;;;1.65;1.55;;;;;;;;;;2090851;28;20037;-66
2022/06/05 06:19:59;;;;;;;1.13;1.05;;;;;;;;;;2094649;28;20048;-66
2022/06/05 06:21:18;;;;;;;1.42;1.33;;;;;;;;;;2089761;28;20029;-66
2022/06/05 06:22:38;;;;;;;1.45;1.35;;;;;;;;;;2092943;28;20040;-66
2022/06/05 06:23:57;;;;;;;2.25;1.40;;;;;;;;;;2094035;28;20040;-66
2022/06/05 06:25:16;;;;;;;1.48;1.38;;;;;;;;;;2096597;28;20036;-66
2022/06/05 06:26:35;;;;;;;3.35;1.50;;;;;;;;;;2096658;28;20016;-64
2022/06/05 06:27:54;;;;;;;2.13;1.45;;;;;;;;;;2091512;28;20490;-65
2022/06/05 06:29:13;;;;;;;1.05;1.00;;;;;;;;;;2092537;28;20040;-65
2022/06/05 06:30:33;;;;;;;1.35;1.25;;;;;;;;;;2095126;28;20108;-67
2022/06/05 06:31:52;;;;;;;3.63;1.50;;;;;;;;;;2092920;28;20819;-66
2022/06/05 06:33:11;;;;;;;1.27;1.05;;;;;;;;;;2095683;28;20033;-65
2022/06/05 06:34:30;;;;;;;2.15;1.98;;;;;;;;;;2093265;28;20534;-65
2022/06/05 06:35:49;;;;;;;1.45;1.35;;;;;;;;;;2097009;28;20071;-65
2022/06/05 06:37:08;;;;;;;2.00;1.48;;;;;;;;;;2094772;28;20032;-65
2022/06/05 06:38:26;;;;;;;2.65;1.70;;;;;;;;;;2091194;28;20041;-66
2022/06/05 06:39:45;;;;;;;1.67;1.30;;;;;;;;;;2094440;28;20414;-65
2022/06/05 06:41:06;;;;;;;1.58;1.40;;;;;;;;;;2094592;28;20040;-64
2022/06/05 06:42:25;;;;;;;1.45;1.35;;;;;;;;;;2095878;28;20478;-64
2022/06/05 06:43:44;;;;;;;1.30;1.20;;;;;;;;;;2095660;28;20086;-64
2022/06/05 06:45:04;;;;;;;2.25;1.27;;;;;;;;;;2091910;28;20028;-64
2022/06/05 06:46:25;;;;;;;1.58;1.48;;;;;;;;;;2094066;28;20040;-65
2022/06/05 06:47:44;;;;;;;1.40;1.27;;;;;;;;;;2096783;28;20020;-65
2022/06/05 06:49:04;;;;;;;4.80;1.35;;;;;;;;;;2092160;28;20971;-65
2022/06/05 06:50:23;;;;;;;2.08;1.58;;;;;;;;;;2093601;28;20032;-63
2022/06/05 06:51:42;;;;;;;1.63;1.52;;;;;;;;;;2093975;28;20483;-67
2022/06/05 06:53:00;;;;;;;2.35;1.10;;;;;;;;;;2095443;28;20024;-64
2022/06/05 06:54:19;;;;;;;1.75;1.65;;;;;;;;;;2093460;28;20394;-64
2022/06/05 06:55:38;;;;;;;1.33;1.20;;;;;;;;;;2096193;28;20328;-65
2022/06/05 06:56:57;;;;;;;1.45;1.40;;;;;;;;;;2086256;28;20418;-66
2022/06/05 06:58:16;;;;;;;2.65;1.45;;;;;;;;;;2087809;28;20461;-64
2022/06/05 06:59:35;;;;;;;1.35;1.25;;;;;;;;;;2088885;28;21444;-64
2022/06/05 07:00:53;;;;;;;1.70;1.60;;;;;;;;;;2090989;28;20032;-64
2022/06/05 07:02:12;;;;;;;1.40;1.30;;;;;;;;;;2093199;28;20144;-64
2022/06/05 07:03:33;;;;;;;1.65;1.55;;;;;;;;;;2093160;28;20109;-64
2022/06/05 07:04:52;;;;;;;3.20;1.58;;;;;;;;;;2094076;28;20473;-64
2022/06/05 07:06:12;;;;;;;1.63;1.52;;;;;;;;;;2096569;28;20025;-65
2022/06/05 07:07:31;;;;;;;2.92;1.25;;;;;;;;;;2095207;28;20040;-64
2022/06/05 07:08:51;;;;;;;1.40;1.30;;;;;;;;;;2091879;28;20419;-65
2022/06/05 07:10:10;;;;;;;1.52;1.42;;;;;;;;;;2092655;28;20029;-65
2022/06/05 07:11:29;;;;;;;1.17;1.10;;;;;;;;;;2094796;28;20062;-64
2022/06/05 07:12:48;;;;;;;1.65;1.55;;;;;;;;;;2095987;28;20021;-65
2022/06/05 07:14:09;;;;;;;1.35;1.25;;;;;;;;;;2096244;28;20029;-65
2022/06/05 07:15:33;;;;;;;4.03;1.40;;;;;;;;;;2093105;28;20390;-64
2022/06/05 07:16:53;;;;;;;1.30;1.20;;;;;;;;;;2094232;28;20032;-64
2022/06/05 07:18:13;;;;;;;1.58;1.10;;;;;;;;;;2095063;28;20115;-66
2022/06/05 07:19:31;;;;;;;1.30;1.20;;;;;;;;;;2092065;28;20126;-64
2022/06/05 07:20:51;;;;;;;1.58;1.42;;;;;;;;;;2095105;28;20402;-64
2022/06/05 07:22:10;;;;;;;2.65;1.30;;;;;;;;;;2092808;28;20029;-64
2022/06/05 07:23:29;;;;;;;1.55;1.45;;;;;;;;;;2092091;28;20119;-64
2022/06/05 07:24:47;;;;;;;1.10;1.10;;;;;;;;;;2090833;28;20037;-66
2022/06/05 07:26:08;;;;;;;2.08;1.40;;;;;;;;;;2093793;28;20028;-67
2022/06/05 07:27:27;;;;;;;1.30;1.30;;;;;;;;;;2094158;28;20037;-65
2022/06/05 07:28:46;;;;;;;1.60;1.50;;;;;;;;;;2094700;28;20029;-64
2022/06/05 07:30:06;;;;;;;1.40;1.30;;;;;;;;;;2094398;28;20033;-65
2022/06/05 07:31:29;;;;;;;2.17;1.30;;;;;;;;;;2096169;28;20028;-65
2022/06/05 07:32:48;;;;;;;1.75;1.58;;;;;;;;;;2093943;28;20060;-64
2022/06/05 07:34:08;;;;;;;1.25;1.25;;;;;;;;;;2095601;28;20024;-65
2022/06/05 07:35:27;;;;;;;1.60;1.50;;;;;;;;;;2093922;28;20032;-65
2022/06/05 07:36:46;;;;;;;1.25;1.25;;;;;;;;;;2094194;28;20020;-65
2022/06/05 07:38:05;;;;;;;3.53;1.20;;;;;;;;;;2094899;28;20067;-64
2022/06/05 07:39:26;;;;;;;2.65;1.20;;;;;;;;;;2092845;28;20036;-64
2022/06/05 07:40:46;;;;;;;2.17;1.55;;;;;;;;;;2094804;28;20028;-65
2022/06/05 07:42:05;;;;;;;1.55;1.42;;;;;;;;;;2095785;28;20033;-65
2022/06/05 07:43:24;;;;;;;1.50;1.13;;;;;;;;;;2092935;28;20419;-66
2022/06/05 07:44:43;;;;;;;3.10;1.30;;;;;;;;;;2094208;28;20029;-67
2022/06/05 07:46:03;;;;;;;1.50;1.40;;;;;;;;;;2093564;28;20025;-66
2022/06/05 07:47:22;;;;;;;1.63;1.52;;;;;;;;;;2091902;28;20029;-66
2022/06/05 07:48:41;;;;;;;1.45;1.33;;;;;;;;;;2096961;28;20017;-66
2022/06/05 07:50:01;;;;;;;1.27;1.20;;;;;;;;;;2096272;28;20032;-67
2022/06/05 07:54:37;;;;;;;2.05;1.38;;;;;;;;;;2093602;28;20060;-66
2022/06/05 07:55:56;;;;;;;1.45;1.27;;;;;;;;;;2092885;28;20040;-66
2022/06/05 07:57:18;;;;;;;2.05;1.20;;;;;;;;;;2089850;28;20067;-66
2022/06/05 07:58:37;;;;;;;1.55;1.45;;;;;;;;;;2096209;28;20033;-66
2022/06/05 07:59:56;;;;;;;2.15;1.30;;;;;;;;;;2094887;28;20033;-66
2022/06/05 08:01:15;;;;;;;0.98;0.98;;;;;;;;;;2095177;28;20219;-64
2022/06/05 08:02:35;;;;;;;1.83;1.70;;;;;;;;;;2096226;28;20143;-63
2022/06/05 08:03:54;;;;;;;1.40;1.30;;;;;;;;;;2095802;28;20036;-64
2022/06/05 08:05:13;;;;;;;1.35;1.25;;;;;;;;;;2094885;28;20028;-64
2022/06/05 08:06:34;;;;;;;1.23;1.13;;;;;;;;;;2094976;28;20033;-64
2022/06/05 08:07:52;;;;;;;2.63;1.50;;;;;;;;;;2096083;28;20033;-65
2022/06/05 08:09:11;;;;;;;2.30;1.80;;;;;;;;;;2095106;28;20036;-64
2022/06/05 08:10:32;;;;;;;1.75;1.40;;;;;;;;;;2092864;28;20025;-64
2022/06/05 08:11:51;;;;;;;3.40;1.20;;;;;;;;;;2093753;28;20484;-65
2022/06/05 08:13:10;;;;;;;1.70;1.60;;;;;;;;;;2096408;28;20032;-65